createdAt,value
2022-09-20T00:14:42.452Z,2.30
2022-09-20T00:24:48.864Z,2.10
2022-09-20T00:29:50.313Z,2.40
2022-09-20T00:40:17.209Z,2.20
2022-09-20T00:45:22.860Z,2.50
2022-09-20T00:50:41.656Z,2.40
2022-09-20T00:55:48.129Z,2.60
2022-09-20T01:00:54.057Z,2.40
2022-09-20T01:05:55.429Z,2.10
2022-09-20T01:10:56.831Z,2.20
2022-09-20T01:15:59.739Z,2.50
2022-09-20T01:21:02.851Z,2.30
2022-09-20T01:26:25.967Z,2.30
2022-09-20T01:31:40.164Z,2.30
2022-09-20T01:37:03.278Z,2.40
2022-09-20T01:42:07.463Z,2.30
2022-09-20T01:47:24.134Z,2.50
2022-09-20T01:52:34.507Z,2.30
2022-09-20T01:57:57.521Z,2.60
2022-09-20T02:03:07.828Z,2.50
2022-09-20T02:08:27.477Z,2.50
2022-09-20T02:13:44.836Z,2.50
2022-09-20T02:19:20.259Z,2.70
2022-09-20T02:25:06.650Z,2.70
2022-09-20T02:30:32.885Z,2.70
2022-09-20T02:36:03.767Z,2.90
2022-09-20T02:41:26.576Z,2.40
2022-09-20T02:46:49.752Z,2.70
2022-09-20T02:52:03.800Z,2.50
2022-09-20T02:57:50.201Z,3.00
2022-09-20T03:03:29.150Z,2.70
2022-09-20T03:08:43.683Z,3.10
2022-09-20T03:14:02.166Z,3.00
2022-09-20T03:19:23.558Z,3.00
2022-09-20T03:24:31.052Z,2.90
2022-09-20T03:29:50.680Z,3.00
2022-09-20T03:34:57.875Z,3.00
2022-09-20T03:40:23.964Z,3.20
2022-09-20T03:45:40.484Z,3.10
2022-09-20T03:51:21.909Z,2.70
2022-09-20T04:01:51.718Z,2.90
2022-09-20T04:07:22.901Z,3.20
2022-09-20T04:12:51.988Z,3.10
2022-09-20T04:18:22.943Z,3.10
2022-09-20T04:23:40.843Z,3.30
2022-09-20T04:28:54.481Z,2.70
2022-09-20T04:33:58.841Z,2.80
2022-09-20T04:39:30.305Z,2.90
2022-09-20T04:44:45.236Z,3.20
2022-09-20T04:50:07.017Z,2.80
2022-09-20T04:55:34.430Z,3.40
2022-09-20T05:01:17.966Z,3.50
2022-09-20T05:06:56.600Z,3.10
2022-09-20T05:12:33.679Z,2.90
2022-09-20T05:18:00.065Z,3.00
2022-09-20T05:23:20.332Z,3.30
2022-09-20T05:28:41.753Z,3.80
2022-09-20T05:34:15.759Z,3.40
2022-09-20T05:39:44.884Z,4.00
2022-09-20T05:45:04.781Z,4.10
2022-09-20T05:50:17.945Z,3.70
2022-09-20T05:55:31.194Z,3.70
2022-09-20T06:00:41.086Z,3.90
2022-09-20T06:06:04.115Z,3.40
2022-09-20T06:11:28.651Z,3.20
2022-09-20T06:16:48.683Z,3.10
2022-09-20T06:21:53.572Z,3.30
2022-09-20T06:26:58.915Z,5.20
2022-09-20T06:32:00.576Z,3.80
2022-09-20T06:37:32.017Z,3.80
2022-09-20T06:42:33.122Z,3.90
2022-09-20T06:47:38.112Z,3.80
2022-09-20T06:52:42.119Z,4.20
2022-09-20T06:57:43.623Z,3.60
2022-09-20T07:02:45.893Z,3.80
2022-09-20T07:07:47.426Z,4.00
2022-09-20T07:12:49.028Z,3.80
2022-09-20T07:17:51.191Z,3.40
2022-09-20T07:22:52.959Z,3.50
2022-09-20T07:27:54.166Z,2.80
2022-09-20T07:32:55.318Z,2.50
2022-09-20T07:37:57.642Z,2.40
2022-09-20T07:42:58.878Z,2.00
2022-09-20T07:48:04.443Z,1.60
2022-09-20T07:53:05.806Z,1.70
2022-09-20T07:58:06.944Z,1.60
2022-09-20T08:03:08.378Z,1.90
2022-09-20T08:08:10.929Z,1.60
2022-09-20T08:18:34.820Z,1.80
2022-09-20T08:23:37.997Z,1.50
2022-09-20T08:28:40.232Z,1.60
2022-09-20T08:33:42.486Z,1.60
2022-09-20T08:44:16.284Z,1.20
2022-09-20T08:49:36.930Z,1.20
2022-09-20T08:54:40.883Z,1.30
2022-09-20T08:59:42.890Z,2.30
2022-09-20T09:04:45.472Z,1.90
2022-09-20T09:09:49.716Z,1.80
2022-09-20T09:14:57.434Z,1.50
2022-09-20T09:20:23.595Z,1.30
2022-09-20T09:25:31.463Z,1.30
2022-09-20T09:30:35.505Z,1.10
2022-09-20T09:35:36.760Z,6.20
2022-09-20T09:40:50.058Z,1.40
2022-09-20T09:45:51.252Z,1.20
2022-09-20T09:51:14.589Z,2.00
2022-09-20T09:56:22.932Z,1.70
2022-09-20T10:02:00.107Z,1.50
2022-09-20T10:07:34.843Z,1.00
2022-09-20T10:12:44.965Z,1.00
2022-09-20T10:17:52.068Z,1.10
2022-09-20T10:23:51.562Z,1.40
2022-09-20T10:29:10.511Z,1.00
2022-09-20T10:34:21.110Z,1.10
2022-09-20T10:44:43.218Z,1.10
2022-09-20T10:50:07.055Z,1.20
2022-09-20T10:55:21.305Z,1.10
2022-09-20T11:01:01.699Z,2.60
2022-09-20T11:11:41.087Z,1.10
2022-09-20T11:16:50.342Z,7.10
2022-09-20T11:22:12.514Z,6.00
2022-09-20T11:27:24.493Z,4.00
2022-09-20T11:32:48.760Z,1.10
2022-09-20T11:38:18.034Z,1.10
2022-09-20T11:43:21.730Z,1.60
2022-09-20T11:48:35.743Z,1.30
2022-09-20T11:54:15.389Z,1.70
2022-09-20T11:59:39.659Z,1.30
2022-09-20T12:04:45.150Z,1.60
2022-09-20T12:09:55.832Z,1.40
2022-09-20T12:20:00.364Z,1.20
2022-09-20T12:25:39.303Z,1.30
2022-09-20T12:30:40.477Z,1.80
2022-09-20T12:36:13.456Z,1.40
2022-09-20T12:41:27.612Z,2.60
2022-09-20T12:47:07.717Z,1.80
2022-09-20T12:52:49.000Z,2.60
2022-09-20T12:57:57.748Z,1.30
2022-09-20T13:03:01.711Z,1.30
2022-09-20T13:08:17.116Z,1.50
2022-09-20T13:13:31.271Z,1.20
2022-09-20T13:18:35.417Z,1.10
2022-09-20T13:23:49.229Z,1.10
2022-09-20T13:28:53.892Z,2.90
2022-09-20T13:34:12.028Z,1.30
2022-09-20T13:39:25.445Z,1.60
2022-09-20T13:44:27.133Z,1.60
2022-09-20T13:49:31.544Z,1.30
2022-09-20T13:54:33.118Z,1.70
2022-09-20T13:59:44.567Z,1.90
2022-09-20T14:04:46.331Z,1.90
2022-09-20T14:09:47.443Z,1.70
2022-09-20T14:14:50.475Z,1.80
2022-09-20T14:19:54.107Z,2.30
2022-09-20T14:24:58.709Z,2.10
2022-09-20T14:29:59.895Z,2.60
2022-09-20T14:35:04.308Z,2.60
2022-09-20T14:40:23.547Z,2.60
2022-09-20T14:45:33.788Z,2.20
2022-09-20T14:50:38.483Z,1.90
2022-09-20T14:56:01.074Z,2.60
2022-09-20T15:01:23.605Z,1.80
2022-09-20T15:06:25.059Z,2.40
2022-09-20T15:11:28.578Z,2.20
2022-09-20T15:16:30.149Z,2.20
2022-09-20T15:21:31.484Z,2.30
2022-09-20T15:26:33.728Z,2.00
2022-09-20T15:31:34.860Z,1.90
2022-09-20T15:36:36.021Z,2.10
2022-09-20T15:41:37.840Z,2.10
2022-09-20T15:46:40.918Z,2.60
2022-09-20T15:51:42.174Z,3.20
2022-09-20T15:56:43.580Z,3.00
2022-09-20T16:01:48.337Z,2.60
2022-09-20T16:06:49.950Z,3.20
2022-09-20T16:11:58.287Z,3.90
2022-09-20T16:16:59.482Z,2.70
2022-09-20T16:22:01.224Z,2.70
2022-09-20T16:27:06.779Z,3.00
2022-09-20T16:32:08.015Z,5.90
2022-09-20T16:37:15.062Z,4.30
2022-09-20T16:42:18.674Z,4.30
2022-09-20T16:47:22.569Z,3.50
2022-09-20T16:52:25.837Z,3.40
2022-09-20T16:57:27.220Z,3.80
2022-09-20T17:02:31.600Z,3.20
2022-09-20T17:07:32.914Z,2.80
2022-09-20T17:12:40.840Z,3.60
2022-09-20T17:17:42.015Z,3.90
2022-09-20T17:27:44.865Z,3.50
2022-09-20T17:32:49.866Z,2.80
2022-09-20T17:37:51.085Z,2.70
2022-09-20T17:42:52.238Z,2.80
2022-09-20T17:52:56.018Z,3.20
2022-09-20T18:08:06.067Z,3.70
2022-09-20T18:13:07.270Z,3.80
2022-09-20T18:18:09.572Z,5.40
2022-09-20T18:23:10.925Z,8.60
2022-09-20T18:28:13.369Z,7.70
2022-09-20T18:33:17.266Z,7.00
2022-09-20T18:38:18.387Z,3.80
2022-09-20T18:48:23.998Z,3.30
2022-09-20T18:53:30.107Z,4.20
2022-09-20T18:58:31.558Z,3.60
2022-09-20T19:03:53.162Z,3.40
2022-09-20T19:09:21.948Z,3.60
2022-09-20T19:15:02.096Z,3.70
2022-09-20T19:20:12.941Z,3.60
2022-09-20T19:25:30.074Z,3.20
2022-09-20T19:30:32.483Z,3.00
2022-09-20T19:35:40.162Z,4.10
2022-09-20T19:40:58.863Z,4.10
2022-09-20T19:46:23.355Z,3.60
2022-09-20T19:51:25.420Z,3.50
2022-09-20T19:56:28.902Z,3.70
2022-09-20T20:01:30.586Z,3.10
2022-09-20T20:06:58.307Z,3.00
2022-09-20T20:12:14.043Z,3.40
2022-09-20T20:17:52.750Z,4.70
2022-09-20T20:23:15.846Z,3.20
2022-09-20T20:28:17.001Z,3.20
2022-09-20T20:33:18.705Z,3.00
2022-09-20T20:38:20.823Z,2.80
2022-09-20T20:43:22.038Z,3.10
2022-09-20T20:48:23.472Z,3.60
2022-09-20T20:53:24.605Z,2.70
2022-09-20T21:03:29.901Z,2.60
2022-09-20T21:08:35.579Z,2.30
2022-09-20T21:13:38.701Z,2.30
2022-09-20T21:18:42.446Z,2.40
2022-09-20T21:23:45.749Z,3.70
2022-09-20T21:28:52.252Z,2.60
2022-09-20T21:33:53.432Z,2.20
2022-09-20T21:38:56.363Z,2.10
2022-09-20T21:43:59.604Z,2.30
2022-09-20T21:49:03.635Z,2.20
2022-09-20T21:54:05.146Z,2.30
2022-09-20T21:59:07.108Z,2.50
2022-09-20T22:04:10.895Z,2.40
2022-09-20T22:09:15.174Z,2.50
2022-09-20T22:14:18.679Z,2.10
2022-09-20T22:19:20.114Z,2.60
2022-09-20T22:29:22.319Z,2.30
2022-09-20T22:34:24.588Z,2.40
2022-09-20T22:39:25.725Z,2.20
2022-09-20T22:49:27.878Z,2.00
2022-09-20T22:59:30.251Z,2.00
2022-09-20T23:09:32.470Z,2.10
2022-09-20T23:19:34.735Z,2.10
2022-09-20T23:24:35.917Z,2.10
2022-09-20T23:29:37.248Z,2.10
2022-09-20T23:39:40.793Z,2.00
2022-09-20T23:44:42.061Z,2.20
2022-09-20T23:49:43.202Z,2.00
2022-09-20T23:59:45.319Z,1.70
